sensor_id;sensor_type;location;lat;lon;timestamp;P1;durP1;ratioP1;P2;durP2;ratioP2
22129;SDS011;11231;50.746;4.272;2024-02-28T00:00:37;33.83;;;19.90;;
22129;SDS011;11231;50.746;4.272;2024-02-28T00:03:03;38.33;;;20.33;;
22129;SDS011;11231;50.746;4.272;2024-02-28T00:05:29;34.03;;;20.00;;
22129;SDS011;11231;50.746;4.272;2024-02-28T00:07:56;36.73;;;20.53;;
22129;SDS011;11231;50.746;4.272;2024-02-28T00:10:21;37.67;;;20.00;;
22129;SDS011;11231;50.746;4.272;2024-02-28T00:12:47;37.77;;;20.23;;
22129;SDS011;11231;50.746;4.272;2024-02-28T00:15:13;36.00;;;19.20;;
22129;SDS011;11231;50.746;4.272;2024-02-28T00:17:39;34.77;;;19.37;;
22129;SDS011;11231;50.746;4.272;2024-02-28T00:20:08;35.43;;;20.53;;
22129;SDS011;11231;50.746;4.272;2024-02-28T00:22:35;37.23;;;19.63;;
22129;SDS011;11231;50.746;4.272;2024-02-28T00:25:02;36.70;;;20.57;;
22129;SDS011;11231;50.746;4.272;2024-02-28T00:27:28;35.70;;;18.37;;
22129;SDS011;11231;50.746;4.272;2024-02-28T00:29:53;36.63;;;20.33;;
22129;SDS011;11231;50.746;4.272;2024-02-28T00:32:19;37.53;;;20.07;;
22129;SDS011;11231;50.746;4.272;2024-02-28T00:34:46;39.80;;;20.50;;
22129;SDS011;11231;50.746;4.272;2024-02-28T00:37:11;34.47;;;19.90;;
22129;SDS011;11231;50.746;4.272;2024-02-28T00:39:37;35.23;;;20.03;;
22129;SDS011;11231;50.746;4.272;2024-02-28T00:42:03;36.17;;;20.47;;
22129;SDS011;11231;50.746;4.272;2024-02-28T00:44:28;37.37;;;19.93;;
22129;SDS011;11231;50.746;4.272;2024-02-28T00:46:54;38.20;;;19.70;;
22129;SDS011;11231;50.746;4.272;2024-02-28T00:49:20;38.43;;;19.83;;
22129;SDS011;11231;50.746;4.272;2024-02-28T00:51:46;39.33;;;20.13;;
22129;SDS011;11231;50.746;4.272;2024-02-28T00:54:12;37.33;;;20.07;;
22129;SDS011;11231;50.746;4.272;2024-02-28T00:56:37;36.97;;;19.73;;
22129;SDS011;11231;50.746;4.272;2024-02-28T00:59:03;35.13;;;19.60;;
22129;SDS011;11231;50.746;4.272;2024-02-28T01:01:29;37.30;;;20.63;;
22129;SDS011;11231;50.746;4.272;2024-02-28T01:03:54;34.40;;;19.87;;
22129;SDS011;11231;50.746;4.272;2024-02-28T01:06:20;36.10;;;19.73;;
22129;SDS011;11231;50.746;4.272;2024-02-28T01:08:46;34.60;;;19.77;;
22129;SDS011;11231;50.746;4.272;2024-02-28T01:11:11;34.90;;;18.40;;
22129;SDS011;11231;50.746;4.272;2024-02-28T01:13:37;34.87;;;19.37;;
22129;SDS011;11231;50.746;4.272;2024-02-28T01:16:03;37.47;;;19.63;;
22129;SDS011;11231;50.746;4.272;2024-02-28T01:18:29;36.97;;;20.20;;
22129;SDS011;11231;50.746;4.272;2024-02-28T01:20:56;39.20;;;20.50;;
22129;SDS011;11231;50.746;4.272;2024-02-28T01:23:21;37.90;;;20.43;;
22129;SDS011;11231;50.746;4.272;2024-02-28T01:25:48;35.83;;;20.53;;
22129;SDS011;11231;50.746;4.272;2024-02-28T01:28:13;36.03;;;20.53;;
22129;SDS011;11231;50.746;4.272;2024-02-28T01:30:39;38.07;;;20.73;;
22129;SDS011;11231;50.746;4.272;2024-02-28T01:33:05;40.87;;;20.40;;
22129;SDS011;11231;50.746;4.272;2024-02-28T01:35:30;41.23;;;21.70;;
22129;SDS011;11231;50.746;4.272;2024-02-28T01:37:56;37.13;;;21.13;;
22129;SDS011;11231;50.746;4.272;2024-02-28T01:40:22;41.17;;;21.20;;
22129;SDS011;11231;50.746;4.272;2024-02-28T01:42:47;37.03;;;20.97;;
22129;SDS011;11231;50.746;4.272;2024-02-28T01:45:13;38.97;;;20.93;;
22129;SDS011;11231;50.746;4.272;2024-02-28T01:47:40;45.70;;;23.13;;
22129;SDS011;11231;50.746;4.272;2024-02-28T01:50:07;40.37;;;20.73;;
22129;SDS011;11231;50.746;4.272;2024-02-28T01:52:34;39.03;;;19.50;;
22129;SDS011;11231;50.746;4.272;2024-02-28T01:55:01;39.80;;;20.13;;
22129;SDS011;11231;50.746;4.272;2024-02-28T01:57:27;37.23;;;20.27;;
22129;SDS011;11231;50.746;4.272;2024-02-28T01:59:53;37.90;;;19.40;;
22129;SDS011;11231;50.746;4.272;2024-02-28T02:02:21;38.40;;;21.47;;
22129;SDS011;11231;50.746;4.272;2024-02-28T02:04:47;39.67;;;19.97;;
22129;SDS011;11231;50.746;4.272;2024-02-28T02:07:12;37.27;;;18.37;;
22129;SDS011;11231;50.746;4.272;2024-02-28T02:09:38;36.50;;;19.07;;
22129;SDS011;11231;50.746;4.272;2024-02-28T02:12:04;34.67;;;20.20;;
22129;SDS011;11231;50.746;4.272;2024-02-28T02:14:30;34.10;;;19.93;;
22129;SDS011;11231;50.746;4.272;2024-02-28T02:16:56;44.20;;;21.13;;
22129;SDS011;11231;50.746;4.272;2024-02-28T02:19:21;36.50;;;19.40;;
22129;SDS011;11231;50.746;4.272;2024-02-28T02:21:52;37.17;;;19.43;;
22129;SDS011;11231;50.746;4.272;2024-02-28T02:24:19;38.03;;;19.47;;
22129;SDS011;11231;50.746;4.272;2024-02-28T02:26:45;34.27;;;18.47;;
22129;SDS011;11231;50.746;4.272;2024-02-28T02:29:12;36.37;;;19.47;;
22129;SDS011;11231;50.746;4.272;2024-02-28T02:31:38;38.00;;;19.10;;
22129;SDS011;11231;50.746;4.272;2024-02-28T02:34:04;36.63;;;18.97;;
22129;SDS011;11231;50.746;4.272;2024-02-28T02:36:29;37.37;;;19.50;;
22129;SDS011;11231;50.746;4.272;2024-02-28T02:38:55;35.00;;;18.20;;
22129;SDS011;11231;50.746;4.272;2024-02-28T02:41:21;35.40;;;18.83;;
22129;SDS011;11231;50.746;4.272;2024-02-28T02:43:46;34.87;;;18.37;;
22129;SDS011;11231;50.746;4.272;2024-02-28T02:46:12;36.13;;;18.17;;
22129;SDS011;11231;50.746;4.272;2024-02-28T02:48:38;34.40;;;17.47;;
22129;SDS011;11231;50.746;4.272;2024-02-28T02:51:03;33.03;;;17.60;;
22129;SDS011;11231;50.746;4.272;2024-02-28T02:53:29;31.03;;;16.97;;
22129;SDS011;11231;50.746;4.272;2024-02-28T02:55:55;33.73;;;17.63;;
22129;SDS011;11231;50.746;4.272;2024-02-28T02:58:21;36.10;;;18.67;;
22129;SDS011;11231;50.746;4.272;2024-02-28T03:00:46;40.07;;;18.63;;
22129;SDS011;11231;50.746;4.272;2024-02-28T03:03:12;37.97;;;18.53;;
22129;SDS011;11231;50.746;4.272;2024-02-28T03:05:38;37.83;;;18.47;;
22129;SDS011;11231;50.746;4.272;2024-02-28T03:08:03;38.63;;;18.30;;
22129;SDS011;11231;50.746;4.272;2024-02-28T03:10:29;35.07;;;18.90;;
22129;SDS011;11231;50.746;4.272;2024-02-28T03:12:55;41.37;;;18.80;;
22129;SDS011;11231;50.746;4.272;2024-02-28T03:15:21;39.00;;;19.70;;
22129;SDS011;11231;50.746;4.272;2024-02-28T03:17:46;40.30;;;18.93;;
22129;SDS011;11231;50.746;4.272;2024-02-28T03:20:12;39.57;;;19.63;;
22129;SDS011;11231;50.746;4.272;2024-02-28T03:22:40;36.03;;;19.30;;
22129;SDS011;11231;50.746;4.272;2024-02-28T03:25:06;35.77;;;19.73;;
22129;SDS011;11231;50.746;4.272;2024-02-28T03:27:33;37.53;;;19.60;;
22129;SDS011;11231;50.746;4.272;2024-02-28T03:30:00;33.93;;;18.93;;
22129;SDS011;11231;50.746;4.272;2024-02-28T03:32:26;36.30;;;20.30;;
22129;SDS011;11231;50.746;4.272;2024-02-28T03:34:52;35.00;;;19.13;;
22129;SDS011;11231;50.746;4.272;2024-02-28T03:37:18;38.27;;;19.73;;
22129;SDS011;11231;50.746;4.272;2024-02-28T03:39:43;40.00;;;19.80;;
22129;SDS011;11231;50.746;4.272;2024-02-28T03:42:09;37.17;;;18.73;;
22129;SDS011;11231;50.746;4.272;2024-02-28T03:44:35;38.17;;;19.37;;
22129;SDS011;11231;50.746;4.272;2024-02-28T03:47:00;36.67;;;18.73;;
22129;SDS011;11231;50.746;4.272;2024-02-28T03:49:26;37.13;;;18.70;;
22129;SDS011;11231;50.746;4.272;2024-02-28T03:51:52;37.53;;;18.90;;
22129;SDS011;11231;50.746;4.272;2024-02-28T03:54:17;41.60;;;20.07;;
22129;SDS011;11231;50.746;4.272;2024-02-28T03:56:43;38.20;;;18.50;;
22129;SDS011;11231;50.746;4.272;2024-02-28T03:59:09;42.70;;;20.13;;
22129;SDS011;11231;50.746;4.272;2024-02-28T04:01:34;34.17;;;19.33;;
22129;SDS011;11231;50.746;4.272;2024-02-28T04:04:00;35.23;;;19.00;;
22129;SDS011;11231;50.746;4.272;2024-02-28T04:06:27;38.27;;;20.07;;
22129;SDS011;11231;50.746;4.272;2024-02-28T04:08:53;39.30;;;20.37;;
22129;SDS011;11231;50.746;4.272;2024-02-28T04:11:18;35.40;;;19.47;;
22129;SDS011;11231;50.746;4.272;2024-02-28T04:13:44;35.07;;;18.67;;
22129;SDS011;11231;50.746;4.272;2024-02-28T04:16:10;34.77;;;19.40;;
22129;SDS011;11231;50.746;4.272;2024-02-28T04:18:36;40.13;;;19.43;;
22129;SDS011;11231;50.746;4.272;2024-02-28T04:21:02;38.10;;;18.60;;
22129;SDS011;11231;50.746;4.272;2024-02-28T04:23:28;38.97;;;19.87;;
22129;SDS011;11231;50.746;4.272;2024-02-28T04:25:53;40.73;;;19.83;;
22129;SDS011;11231;50.746;4.272;2024-02-28T04:28:19;36.13;;;19.20;;
22129;SDS011;11231;50.746;4.272;2024-02-28T04:30:45;37.20;;;19.87;;
22129;SDS011;11231;50.746;4.272;2024-02-28T04:33:10;38.87;;;19.63;;
22129;SDS011;11231;50.746;4.272;2024-02-28T04:35:36;38.83;;;19.97;;
22129;SDS011;11231;50.746;4.272;2024-02-28T04:38:02;37.80;;;19.90;;
22129;SDS011;11231;50.746;4.272;2024-02-28T04:40:28;38.00;;;19.53;;
22129;SDS011;11231;50.746;4.272;2024-02-28T04:42:53;37.73;;;19.93;;
22129;SDS011;11231;50.746;4.272;2024-02-28T04:45:19;38.67;;;18.97;;
22129;SDS011;11231;50.746;4.272;2024-02-28T04:47:45;40.77;;;19.40;;
22129;SDS011;11231;50.746;4.272;2024-02-28T04:50:11;42.10;;;20.57;;
22129;SDS011;11231;50.746;4.272;2024-02-28T04:52:37;40.20;;;20.47;;
22129;SDS011;11231;50.746;4.272;2024-02-28T04:55:03;41.93;;;21.47;;
22129;SDS011;11231;50.746;4.272;2024-02-28T04:57:29;42.97;;;21.23;;
22129;SDS011;11231;50.746;4.272;2024-02-28T04:59:54;44.43;;;22.60;;
22129;SDS011;11231;50.746;4.272;2024-02-28T05:02:20;37.80;;;20.33;;
22129;SDS011;11231;50.746;4.272;2024-02-28T05:04:51;41.60;;;20.67;;
22129;SDS011;11231;50.746;4.272;2024-02-28T05:07:16;39.47;;;20.43;;
22129;SDS011;11231;50.746;4.272;2024-02-28T05:09:42;41.30;;;20.93;;
22129;SDS011;11231;50.746;4.272;2024-02-28T05:12:08;39.60;;;21.67;;
22129;SDS011;11231;50.746;4.272;2024-02-28T05:14:34;40.20;;;21.23;;
22129;SDS011;11231;50.746;4.272;2024-02-28T05:16:59;38.30;;;20.43;;
22129;SDS011;11231;50.746;4.272;2024-02-28T05:19:25;41.13;;;21.40;;
22129;SDS011;11231;50.746;4.272;2024-02-28T05:21:51;42.83;;;22.47;;
22129;SDS011;11231;50.746;4.272;2024-02-28T05:24:17;44.87;;;23.13;;
22129;SDS011;11231;50.746;4.272;2024-02-28T05:26:43;46.60;;;23.23;;
22129;SDS011;11231;50.746;4.272;2024-02-28T05:29:08;41.20;;;23.47;;
22129;SDS011;11231;50.746;4.272;2024-02-28T05:31:34;42.13;;;23.10;;
22129;SDS011;11231;50.746;4.272;2024-02-28T05:34:01;44.93;;;23.17;;
22129;SDS011;11231;50.746;4.272;2024-02-28T05:36:28;42.90;;;24.07;;
22129;SDS011;11231;50.746;4.272;2024-02-28T05:38:55;47.07;;;23.60;;
22129;SDS011;11231;50.746;4.272;2024-02-28T05:41:22;44.10;;;21.87;;
22129;SDS011;11231;50.746;4.272;2024-02-28T05:43:49;43.50;;;22.83;;
22129;SDS011;11231;50.746;4.272;2024-02-28T05:46:15;48.17;;;23.27;;
22129;SDS011;11231;50.746;4.272;2024-02-28T05:48:42;40.50;;;22.33;;
22129;SDS011;11231;50.746;4.272;2024-02-28T05:51:08;44.40;;;22.53;;
22129;SDS011;11231;50.746;4.272;2024-02-28T05:53:35;43.37;;;22.53;;
22129;SDS011;11231;50.746;4.272;2024-02-28T05:56:04;46.47;;;23.40;;
22129;SDS011;11231;50.746;4.272;2024-02-28T05:58:38;45.03;;;22.40;;
22129;SDS011;11231;50.746;4.272;2024-02-28T06:01:04;43.63;;;20.67;;
22129;SDS011;11231;50.746;4.272;2024-02-28T06:03:30;42.80;;;22.03;;
22129;SDS011;11231;50.746;4.272;2024-02-28T06:05:55;39.30;;;21.40;;
22129;SDS011;11231;50.746;4.272;2024-02-28T06:08:23;44.67;;;20.10;;
22129;SDS011;11231;50.746;4.272;2024-02-28T06:10:48;46.37;;;20.83;;
22129;SDS011;11231;50.746;4.272;2024-02-28T06:13:14;35.90;;;20.30;;
22129;SDS011;11231;50.746;4.272;2024-02-28T06:15:40;39.87;;;20.83;;
22129;SDS011;11231;50.746;4.272;2024-02-28T06:18:05;36.50;;;20.30;;
22129;SDS011;11231;50.746;4.272;2024-02-28T06:20:31;40.10;;;19.70;;
22129;SDS011;11231;50.746;4.272;2024-02-28T06:22:57;37.50;;;19.83;;
22129;SDS011;11231;50.746;4.272;2024-02-28T06:25:22;44.80;;;22.33;;
22129;SDS011;11231;50.746;4.272;2024-02-28T06:27:49;42.43;;;20.33;;
22129;SDS011;11231;50.746;4.272;2024-02-28T06:30:15;39.53;;;20.33;;
22129;SDS011;11231;50.746;4.272;2024-02-28T06:32:42;39.77;;;19.43;;
22129;SDS011;11231;50.746;4.272;2024-02-28T06:35:08;43.93;;;21.10;;
22129;SDS011;11231;50.746;4.272;2024-02-28T06:37:34;41.23;;;21.47;;
22129;SDS011;11231;50.746;4.272;2024-02-28T06:40:00;43.63;;;21.37;;
22129;SDS011;11231;50.746;4.272;2024-02-28T06:42:26;41.43;;;20.97;;
22129;SDS011;11231;50.746;4.272;2024-02-28T06:44:51;37.23;;;20.10;;
22129;SDS011;11231;50.746;4.272;2024-02-28T06:47:17;44.53;;;19.33;;
22129;SDS011;11231;50.746;4.272;2024-02-28T06:49:45;40.13;;;19.10;;
22129;SDS011;11231;50.746;4.272;2024-02-28T06:52:11;40.13;;;19.20;;
22129;SDS011;11231;50.746;4.272;2024-02-28T06:54:37;32.93;;;18.50;;
22129;SDS011;11231;50.746;4.272;2024-02-28T06:57:03;37.30;;;19.23;;
22129;SDS011;11231;50.746;4.272;2024-02-28T06:59:29;35.10;;;18.97;;
22129;SDS011;11231;50.746;4.272;2024-02-28T07:01:54;39.33;;;19.27;;
22129;SDS011;11231;50.746;4.272;2024-02-28T07:04:20;42.63;;;20.33;;
22129;SDS011;11231;50.746;4.272;2024-02-28T07:06:46;37.20;;;18.67;;
22129;SDS011;11231;50.746;4.272;2024-02-28T07:09:11;40.90;;;20.03;;
22129;SDS011;11231;50.746;4.272;2024-02-28T07:11:37;37.03;;;18.93;;
22129;SDS011;11231;50.746;4.272;2024-02-28T07:14:04;41.00;;;20.20;;
22129;SDS011;11231;50.746;4.272;2024-02-28T07:16:30;38.20;;;18.43;;
22129;SDS011;11231;50.746;4.272;2024-02-28T07:18:59;38.53;;;18.87;;
22129;SDS011;11231;50.746;4.272;2024-02-28T07:21:25;40.97;;;19.10;;
22129;SDS011;11231;50.746;4.272;2024-02-28T07:23:51;42.93;;;19.70;;
22129;SDS011;11231;50.746;4.272;2024-02-28T07:26:17;41.03;;;19.47;;
22129;SDS011;11231;50.746;4.272;2024-02-28T07:28:43;43.53;;;19.50;;
22129;SDS011;11231;50.746;4.272;2024-02-28T07:31:17;37.90;;;19.07;;
22129;SDS011;11231;50.746;4.272;2024-02-28T07:33:43;36.17;;;18.43;;
22129;SDS011;11231;50.746;4.272;2024-02-28T07:36:10;34.37;;;17.87;;
22129;SDS011;11231;50.746;4.272;2024-02-28T07:38:36;54.37;;;23.83;;
22129;SDS011;11231;50.746;4.272;2024-02-28T07:41:02;43.27;;;22.50;;
22129;SDS011;11231;50.746;4.272;2024-02-28T07:43:28;40.80;;;21.97;;
22129;SDS011;11231;50.746;4.272;2024-02-28T07:45:57;35.70;;;18.97;;
22129;SDS011;11231;50.746;4.272;2024-02-28T07:48:24;32.87;;;17.90;;
22129;SDS011;11231;50.746;4.272;2024-02-28T07:50:49;32.93;;;16.60;;
22129;SDS011;11231;50.746;4.272;2024-02-28T07:53:16;33.63;;;17.17;;
22129;SDS011;11231;50.746;4.272;2024-02-28T07:55:42;35.93;;;18.00;;
22129;SDS011;11231;50.746;4.272;2024-02-28T07:58:08;37.77;;;16.63;;
22129;SDS011;11231;50.746;4.272;2024-02-28T08:00:34;32.63;;;16.23;;
22129;SDS011;11231;50.746;4.272;2024-02-28T08:03:00;33.73;;;18.57;;
22129;SDS011;11231;50.746;4.272;2024-02-28T08:05:26;34.33;;;17.57;;
22129;SDS011;11231;50.746;4.272;2024-02-28T08:07:52;40.37;;;18.73;;
22129;SDS011;11231;50.746;4.272;2024-02-28T08:10:18;41.07;;;19.43;;
22129;SDS011;11231;50.746;4.272;2024-02-28T08:12:44;38.53;;;19.50;;
22129;SDS011;11231;50.746;4.272;2024-02-28T08:15:09;37.37;;;18.30;;
22129;SDS011;11231;50.746;4.272;2024-02-28T08:17:35;33.13;;;14.50;;
22129;SDS011;11231;50.746;4.272;2024-02-28T08:20:02;31.93;;;14.60;;
22129;SDS011;11231;50.746;4.272;2024-02-28T08:22:30;34.80;;;15.40;;
22129;SDS011;11231;50.746;4.272;2024-02-28T08:24:56;33.47;;;14.93;;
22129;SDS011;11231;50.746;4.272;2024-02-28T08:27:22;36.70;;;15.83;;
22129;SDS011;11231;50.746;4.272;2024-02-28T08:29:49;30.30;;;15.20;;
22129;SDS011;11231;50.746;4.272;2024-02-28T08:32:15;31.40;;;15.00;;
22129;SDS011;11231;50.746;4.272;2024-02-28T08:34:44;37.53;;;16.43;;
22129;SDS011;11231;50.746;4.272;2024-02-28T08:37:14;29.67;;;14.87;;
22129;SDS011;11231;50.746;4.272;2024-02-28T08:39:43;32.67;;;14.97;;
22129;SDS011;11231;50.746;4.272;2024-02-28T08:42:08;33.00;;;14.50;;
22129;SDS011;11231;50.746;4.272;2024-02-28T08:44:34;30.60;;;13.33;;
22129;SDS011;11231;50.746;4.272;2024-02-28T08:47:00;33.70;;;14.43;;
22129;SDS011;11231;50.746;4.272;2024-02-28T08:49:25;32.90;;;15.20;;
22129;SDS011;11231;50.746;4.272;2024-02-28T08:51:51;39.83;;;14.77;;
22129;SDS011;11231;50.746;4.272;2024-02-28T08:54:17;28.83;;;13.60;;
22129;SDS011;11231;50.746;4.272;2024-02-28T08:56:43;31.57;;;14.00;;
22129;SDS011;11231;50.746;4.272;2024-02-28T08:59:08;29.50;;;12.67;;
22129;SDS011;11231;50.746;4.272;2024-02-28T09:01:34;29.70;;;12.63;;
22129;SDS011;11231;50.746;4.272;2024-02-28T09:04:01;30.53;;;13.43;;
22129;SDS011;11231;50.746;4.272;2024-02-28T09:06:26;28.93;;;13.77;;
22129;SDS011;11231;50.746;4.272;2024-02-28T09:08:52;28.27;;;13.07;;
22129;SDS011;11231;50.746;4.272;2024-02-28T09:11:18;27.00;;;12.40;;
22129;SDS011;11231;50.746;4.272;2024-02-28T09:13:43;27.60;;;12.73;;
22129;SDS011;11231;50.746;4.272;2024-02-28T09:16:09;27.77;;;13.57;;
22129;SDS011;11231;50.746;4.272;2024-02-28T09:18:35;31.50;;;14.37;;
22129;SDS011;11231;50.746;4.272;2024-02-28T09:21:01;29.93;;;13.80;;
22129;SDS011;11231;50.746;4.272;2024-02-28T09:23:27;29.70;;;14.13;;
22129;SDS011;11231;50.746;4.272;2024-02-28T09:25:52;29.67;;;14.13;;
22129;SDS011;11231;50.746;4.272;2024-02-28T09:28:18;31.73;;;13.13;;
22129;SDS011;11231;50.746;4.272;2024-02-28T09:30:44;29.47;;;13.67;;
22129;SDS011;11231;50.746;4.272;2024-02-28T09:33:12;28.23;;;12.40;;
22129;SDS011;11231;50.746;4.272;2024-02-28T09:35:38;30.37;;;12.73;;
22129;SDS011;11231;50.746;4.272;2024-02-28T09:38:04;31.57;;;12.77;;
22129;SDS011;11231;50.746;4.272;2024-02-28T09:40:30;22.03;;;11.57;;
22129;SDS011;11231;50.746;4.272;2024-02-28T09:43:02;27.00;;;12.70;;
22129;SDS011;11231;50.746;4.272;2024-02-28T09:45:29;27.23;;;12.00;;
22129;SDS011;11231;50.746;4.272;2024-02-28T09:47:59;25.00;;;12.37;;
22129;SDS011;11231;50.746;4.272;2024-02-28T09:50:25;29.73;;;13.13;;
22129;SDS011;11231;50.746;4.272;2024-02-28T09:52:52;25.87;;;13.37;;
22129;SDS011;11231;50.746;4.272;2024-02-28T09:55:18;25.83;;;13.07;;
22129;SDS011;11231;50.746;4.272;2024-02-28T09:57:45;31.23;;;15.13;;
22129;SDS011;11231;50.746;4.272;2024-02-28T10:00:13;30.10;;;15.33;;
22129;SDS011;11231;50.746;4.272;2024-02-28T10:02:41;29.00;;;14.87;;
22129;SDS011;11231;50.746;4.272;2024-02-28T10:05:10;31.47;;;14.57;;
22129;SDS011;11231;50.746;4.272;2024-02-28T10:07:36;29.30;;;15.00;;
22129;SDS011;11231;50.746;4.272;2024-02-28T10:10:01;31.67;;;14.43;;
22129;SDS011;11231;50.746;4.272;2024-02-28T10:12:29;27.70;;;14.27;;
22129;SDS011;11231;50.746;4.272;2024-02-28T10:14:54;25.90;;;13.73;;
22129;SDS011;11231;50.746;4.272;2024-02-28T10:17:20;26.40;;;13.30;;
22129;SDS011;11231;50.746;4.272;2024-02-28T10:19:46;25.13;;;12.10;;
22129;SDS011;11231;50.746;4.272;2024-02-28T10:22:12;25.20;;;12.77;;
22129;SDS011;11231;50.746;4.272;2024-02-28T10:24:38;24.93;;;12.53;;
22129;SDS011;11231;50.746;4.272;2024-02-28T10:27:04;25.43;;;12.80;;
22129;SDS011;11231;50.746;4.272;2024-02-28T10:29:30;21.63;;;11.77;;
22129;SDS011;11231;50.746;4.272;2024-02-28T10:31:58;18.97;;;11.00;;
22129;SDS011;11231;50.746;4.272;2024-02-28T10:34:25;20.00;;;10.00;;
22129;SDS011;11231;50.746;4.272;2024-02-28T10:36:51;20.53;;;9.27;;
22129;SDS011;11231;50.746;4.272;2024-02-28T10:39:16;15.00;;;8.10;;
22129;SDS011;11231;50.746;4.272;2024-02-28T10:41:44;15.23;;;8.20;;
22129;SDS011;11231;50.746;4.272;2024-02-28T10:44:12;16.10;;;8.00;;
22129;SDS011;11231;50.746;4.272;2024-02-28T10:46:38;18.93;;;8.23;;
22129;SDS011;11231;50.746;4.272;2024-02-28T10:49:08;20.83;;;9.00;;
22129;SDS011;11231;50.746;4.272;2024-02-28T10:51:35;19.53;;;7.87;;
22129;SDS011;11231;50.746;4.272;2024-02-28T10:54:08;15.47;;;7.43;;
22129;SDS011;11231;50.746;4.272;2024-02-28T10:56:37;14.03;;;7.20;;
22129;SDS011;11231;50.746;4.272;2024-02-28T10:59:07;13.67;;;6.50;;
22129;SDS011;11231;50.746;4.272;2024-02-28T11:01:38;12.40;;;5.97;;
22129;SDS011;11231;50.746;4.272;2024-02-28T11:04:12;14.07;;;6.83;;
22129;SDS011;11231;50.746;4.272;2024-02-28T11:06:48;15.67;;;7.00;;
22129;SDS011;11231;50.746;4.272;2024-02-28T11:09:20;12.07;;;6.17;;
22129;SDS011;11231;50.746;4.272;2024-02-28T11:11:50;11.83;;;6.17;;
22129;SDS011;11231;50.746;4.272;2024-02-28T11:14:17;13.03;;;6.00;;
22129;SDS011;11231;50.746;4.272;2024-02-28T11:16:46;13.30;;;5.73;;
22129;SDS011;11231;50.746;4.272;2024-02-28T11:19:19;14.63;;;6.37;;
22129;SDS011;11231;50.746;4.272;2024-02-28T11:21:52;15.33;;;6.93;;
22129;SDS011;11231;50.746;4.272;2024-02-28T11:24:31;16.30;;;7.23;;
22129;SDS011;11231;50.746;4.272;2024-02-28T11:26:58;19.27;;;7.50;;
22129;SDS011;11231;50.746;4.272;2024-02-28T11:29:25;15.63;;;7.07;;
22129;SDS011;11231;50.746;4.272;2024-02-28T11:31:52;16.00;;;7.20;;
22129;SDS011;11231;50.746;4.272;2024-02-28T11:34:18;16.70;;;7.40;;
22129;SDS011;11231;50.746;4.272;2024-02-28T11:36:48;15.23;;;7.87;;
22129;SDS011;11231;50.746;4.272;2024-02-28T11:39:15;12.83;;;6.67;;
22129;SDS011;11231;50.746;4.272;2024-02-28T11:41:41;14.30;;;7.20;;
22129;SDS011;11231;50.746;4.272;2024-02-28T11:44:07;13.53;;;6.60;;
22129;SDS011;11231;50.746;4.272;2024-02-28T11:46:33;13.50;;;6.63;;
22129;SDS011;11231;50.746;4.272;2024-02-28T11:49:00;16.93;;;7.17;;
22129;SDS011;11231;50.746;4.272;2024-02-28T11:51:26;19.90;;;7.57;;
22129;SDS011;11231;50.746;4.272;2024-02-28T11:53:52;15.50;;;7.37;;
22129;SDS011;11231;50.746;4.272;2024-02-28T11:56:18;15.43;;;7.37;;
22129;SDS011;11231;50.746;4.272;2024-02-28T11:58:50;14.20;;;6.80;;
22129;SDS011;11231;50.746;4.272;2024-02-28T12:01:16;13.50;;;6.60;;
22129;SDS011;11231;50.746;4.272;2024-02-28T12:03:44;17.13;;;6.97;;
22129;SDS011;11231;50.746;4.272;2024-02-28T12:06:11;14.03;;;6.00;;
22129;SDS011;11231;50.746;4.272;2024-02-28T12:08:37;16.43;;;6.77;;
22129;SDS011;11231;50.746;4.272;2024-02-28T12:11:06;16.50;;;6.10;;
22129;SDS011;11231;50.746;4.272;2024-02-28T12:13:33;11.23;;;5.70;;
22129;SDS011;11231;50.746;4.272;2024-02-28T12:16:00;13.93;;;6.27;;
22129;SDS011;11231;50.746;4.272;2024-02-28T12:18:26;12.87;;;6.20;;
22129;SDS011;11231;50.746;4.272;2024-02-28T12:20:53;14.53;;;5.73;;
22129;SDS011;11231;50.746;4.272;2024-02-28T12:23:19;11.97;;;5.23;;
22129;SDS011;11231;50.746;4.272;2024-02-28T12:25:45;12.93;;;6.27;;
22129;SDS011;11231;50.746;4.272;2024-02-28T12:28:11;13.43;;;6.37;;
22129;SDS011;11231;50.746;4.272;2024-02-28T12:30:41;13.50;;;6.13;;
22129;SDS011;11231;50.746;4.272;2024-02-28T12:33:10;14.70;;;5.70;;
22129;SDS011;11231;50.746;4.272;2024-02-28T12:35:39;13.77;;;5.73;;
22129;SDS011;11231;50.746;4.272;2024-02-28T12:38:06;11.40;;;5.60;;
22129;SDS011;11231;50.746;4.272;2024-02-28T12:40:31;12.03;;;5.33;;
22129;SDS011;11231;50.746;4.272;2024-02-28T12:42:57;12.30;;;5.43;;
22129;SDS011;11231;50.746;4.272;2024-02-28T12:45:23;13.50;;;6.90;;
22129;SDS011;11231;50.746;4.272;2024-02-28T12:47:49;12.57;;;5.97;;
22129;SDS011;11231;50.746;4.272;2024-02-28T12:50:14;13.87;;;5.60;;
22129;SDS011;11231;50.746;4.272;2024-02-28T12:52:40;11.83;;;6.00;;
22129;SDS011;11231;50.746;4.272;2024-02-28T12:55:06;13.93;;;6.67;;
22129;SDS011;11231;50.746;4.272;2024-02-28T12:57:32;11.00;;;6.23;;
22129;SDS011;11231;50.746;4.272;2024-02-28T12:59:58;11.70;;;6.60;;
22129;SDS011;11231;50.746;4.272;2024-02-28T13:02:23;13.43;;;5.87;;
22129;SDS011;11231;50.746;4.272;2024-02-28T13:04:49;13.77;;;5.87;;
22129;SDS011;11231;50.746;4.272;2024-02-28T13:07:15;14.40;;;5.90;;
22129;SDS011;11231;50.746;4.272;2024-02-28T13:09:41;11.97;;;5.70;;
22129;SDS011;11231;50.746;4.272;2024-02-28T13:12:07;10.93;;;5.50;;
22129;SDS011;11231;50.746;4.272;2024-02-28T13:14:33;9.07;;;5.40;;
22129;SDS011;11231;50.746;4.272;2024-02-28T13:16:59;13.20;;;6.10;;
22129;SDS011;11231;50.746;4.272;2024-02-28T13:19:25;13.43;;;6.27;;
22129;SDS011;11231;50.746;4.272;2024-02-28T13:21:51;16.13;;;6.80;;
22129;SDS011;11231;50.746;4.272;2024-02-28T13:24:17;12.90;;;7.43;;
22129;SDS011;11231;50.746;4.272;2024-02-28T13:26:43;13.40;;;7.30;;
22129;SDS011;11231;50.746;4.272;2024-02-28T13:29:08;13.50;;;6.77;;
22129;SDS011;11231;50.746;4.272;2024-02-28T13:31:34;13.67;;;6.33;;
22129;SDS011;11231;50.746;4.272;2024-02-28T13:34:00;14.13;;;6.90;;
22129;SDS011;11231;50.746;4.272;2024-02-28T13:36:28;14.70;;;6.00;;
22129;SDS011;11231;50.746;4.272;2024-02-28T13:38:55;12.13;;;6.23;;
22129;SDS011;11231;50.746;4.272;2024-02-28T13:41:21;9.63;;;5.47;;
22129;SDS011;11231;50.746;4.272;2024-02-28T13:43:47;12.37;;;4.83;;
22129;SDS011;11231;50.746;4.272;2024-02-28T13:46:12;13.67;;;5.83;;
22129;SDS011;11231;50.746;4.272;2024-02-28T13:48:39;12.90;;;5.13;;
22129;SDS011;11231;50.746;4.272;2024-02-28T13:51:05;13.07;;;5.30;;
22129;SDS011;11231;50.746;4.272;2024-02-28T13:53:31;10.37;;;5.03;;
22129;SDS011;11231;50.746;4.272;2024-02-28T13:55:56;12.13;;;5.80;;
22129;SDS011;11231;50.746;4.272;2024-02-28T13:58:22;11.63;;;5.60;;
22129;SDS011;11231;50.746;4.272;2024-02-28T14:00:48;13.83;;;6.10;;
22129;SDS011;11231;50.746;4.272;2024-02-28T14:03:14;11.07;;;5.67;;
22129;SDS011;11231;50.746;4.272;2024-02-28T14:05:40;10.20;;;5.63;;
22129;SDS011;11231;50.746;4.272;2024-02-28T14:08:06;13.60;;;6.07;;
22129;SDS011;11231;50.746;4.272;2024-02-28T14:10:33;15.27;;;6.17;;
22129;SDS011;11231;50.746;4.272;2024-02-28T14:12:59;12.23;;;5.53;;
22129;SDS011;11231;50.746;4.272;2024-02-28T14:15:25;14.03;;;5.57;;
22129;SDS011;11231;50.746;4.272;2024-02-28T14:17:51;12.60;;;5.77;;
22129;SDS011;11231;50.746;4.272;2024-02-28T14:20:17;15.33;;;4.97;;